sensor_id;sensor_type;location;lat;lon;timestamp;pressure;altitude;pressure_sealevel;temperature;humidity
5238;BME280;2639;49.700;7.962;2022-12-18T04:09:04;100055.75;;;-8.00;100.00
5238;BME280;2639;49.700;7.962;2022-12-18T04:12:19;100051.69;;;-7.99;100.00
5238;BME280;2639;49.700;7.962;2022-12-18T04:15:31;100057.78;;;-7.88;100.00
5238;BME280;2639;49.700;7.962;2022-12-18T04:18:45;100050.22;;;-7.93;100.00
5238;BME280;2639;49.700;7.962;2022-12-18T04:21:56;100058.25;;;-8.00;100.00
5238;BME280;2639;49.700;7.962;2022-12-18T04:25:07;100047.00;;;-8.08;100.00
5238;BME280;2639;49.700;7.962;2022-12-18T04:28:29;100043.72;;;-8.12;100.00
5238;BME280;2639;49.700;7.962;2022-12-18T04:31:39;100041.41;;;-8.16;100.00
5238;BME280;2639;49.700;7.962;2022-12-18T04:34:50;100043.84;;;-8.07;100.00
5238;BME280;2639;49.700;7.962;2022-12-18T04:38:00;100044.25;;;-8.09;100.00
5238;BME280;2639;49.700;7.962;2022-12-18T04:41:11;100049.53;;;-8.17;100.00
5238;BME280;2639;49.700;7.962;2022-12-18T04:44:22;100047.72;;;-8.18;100.00
5238;BME280;2639;49.700;7.962;2022-12-18T04:47:32;100051.25;;;-8.47;100.00
5238;BME280;2639;49.700;7.962;2022-12-18T04:50:41;100058.06;;;-8.46;100.00
5238;BME280;2639;49.700;7.962;2022-12-18T04:53:51;100061.34;;;-8.41;100.00
5238;BME280;2639;49.700;7.962;2022-12-18T04:57:02;100059.03;;;-8.55;99.79
5238;BME280;2639;49.700;7.962;2022-12-18T05:00:12;100058.72;;;-8.47;99.89
5238;BME280;2639;49.700;7.962;2022-12-18T05:03:22;100052.69;;;-8.43;99.41
5238;BME280;2639;49.700;7.962;2022-12-18T05:06:32;100067.00;;;-8.52;98.63
5238;BME280;2639;49.700;7.962;2022-12-18T05:09:44;100080.69;;;-8.70;99.46
5238;BME280;2639;49.700;7.962;2022-12-18T05:12:55;100070.19;;;-8.63;100.00
5238;BME280;2639;49.700;7.962;2022-12-18T05:16:09;100069.28;;;-8.83;98.83
5238;BME280;2639;49.700;7.962;2022-12-18T05:19:19;100057.66;;;-8.88;98.73
5238;BME280;2639;49.700;7.962;2022-12-18T05:22:28;100067.09;;;-9.11;98.94
5238;BME280;2639;49.700;7.962;2022-12-18T05:25:38;100064.47;;;-9.45;99.64
5238;BME280;2639;49.700;7.962;2022-12-18T05:28:50;100066.03;;;-9.56;100.00
5238;BME280;2639;49.700;7.962;2022-12-18T05:32:00;100066.56;;;-9.33;100.00
5238;BME280;2639;49.700;7.962;2022-12-18T05:35:10;100066.19;;;-9.21;99.29
5238;BME280;2639;49.700;7.962;2022-12-18T05:38:21;100062.78;;;-9.12;97.90
5238;BME280;2639;49.700;7.962;2022-12-18T05:41:31;100056.88;;;-9.22;96.94
5238;BME280;2639;49.700;7.962;2022-12-18T05:44:43;100066.59;;;-9.14;96.93
5238;BME280;2639;49.700;7.962;2022-12-18T05:47:52;100069.44;;;-9.26;96.51
5238;BME280;2639;49.700;7.962;2022-12-18T05:51:05;100072.19;;;-9.34;97.15
5238;BME280;2639;49.700;7.962;2022-12-18T05:54:15;100080.06;;;-9.37;96.53
5238;BME280;2639;49.700;7.962;2022-12-18T05:57:25;100076.78;;;-9.41;96.03
5238;BME280;2639;49.700;7.962;2022-12-18T06:00:38;100083.19;;;-9.38;95.92
5238;BME280;2639;49.700;7.962;2022-12-18T06:38:09;100126.91;;;-9.44;90.06
5238;BME280;2639;49.700;7.962;2022-12-18T06:41:20;100127.81;;;-9.43;90.11
5238;BME280;2639;49.700;7.962;2022-12-18T06:44:30;100127.53;;;-9.35;90.14
5238;BME280;2639;49.700;7.962;2022-12-18T06:47:40;100114.19;;;-9.36;89.24
5238;BME280;2639;49.700;7.962;2022-12-18T06:50:49;100114.06;;;-9.41;88.33
5238;BME280;2639;49.700;7.962;2022-12-18T06:54:00;100112.78;;;-9.39;87.59
5238;BME280;2639;49.700;7.962;2022-12-18T06:57:10;100112.88;;;-9.53;87.47
5238;BME280;2639;49.700;7.962;2022-12-18T07:00:20;100106.34;;;-9.53;88.27
5238;BME280;2639;49.700;7.962;2022-12-18T07:03:30;100112.38;;;-9.46;88.48
5238;BME280;2639;49.700;7.962;2022-12-18T07:06:40;100116.25;;;-9.72;85.96
5238;BME280;2639;49.700;7.962;2022-12-18T07:09:51;100114.34;;;-9.92;86.07
5238;BME280;2639;49.700;7.962;2022-12-18T07:13:01;100123.53;;;-10.11;85.49
5238;BME280;2639;49.700;7.962;2022-12-18T07:16:12;100107.47;;;-10.13;85.83
5238;BME280;2639;49.700;7.962;2022-12-18T07:19:30;100112.47;;;-10.03;85.63
5238;BME280;2639;49.700;7.962;2022-12-18T07:22:40;100118.47;;;-10.07;85.07
5238;BME280;2639;49.700;7.962;2022-12-18T07:25:51;100124.94;;;-10.17;84.39
5238;BME280;2639;49.700;7.962;2022-12-18T07:29:01;100124.31;;;-10.16;84.52
5238;BME280;2639;49.700;7.962;2022-12-18T07:32:10;100132.94;;;-10.14;84.31
5238;BME280;2639;49.700;7.962;2022-12-18T07:35:21;100136.59;;;-10.12;84.16
5238;BME280;2639;49.700;7.962;2022-12-18T07:38:34;100149.94;;;-10.11;84.10
5238;BME280;2639;49.700;7.962;2022-12-18T07:41:45;100158.22;;;-10.07;83.94
5238;BME280;2639;49.700;7.962;2022-12-18T07:45:15;100158.94;;;-10.12;83.06
5238;BME280;2639;49.700;7.962;2022-12-18T07:48:25;100154.78;;;-10.07;82.73
5238;BME280;2639;49.700;7.962;2022-12-18T07:51:34;100158.22;;;-10.07;83.09
5238;BME280;2639;49.700;7.962;2022-12-18T07:54:44;100160.34;;;-9.95;83.34
5238;BME280;2639;49.700;7.962;2022-12-18T07:57:55;100158.13;;;-9.93;83.38
5238;BME280;2639;49.700;7.962;2022-12-18T08:01:10;100142.03;;;-9.95;82.30
5238;BME280;2639;49.700;7.962;2022-12-18T08:04:20;100133.13;;;-9.99;82.15
5238;BME280;2639;49.700;7.962;2022-12-18T08:07:29;100140.56;;;-9.99;82.40
5238;BME280;2639;49.700;7.962;2022-12-18T08:10:39;100148.44;;;-9.91;82.84
5238;BME280;2639;49.700;7.962;2022-12-18T08:13:51;100166.91;;;-9.85;82.99
5238;BME280;2639;49.700;7.962;2022-12-18T08:17:00;100163.66;;;-9.80;82.90
5238;BME280;2639;49.700;7.962;2022-12-18T08:20:10;100150.16;;;-9.86;82.30
5238;BME280;2639;49.700;7.962;2022-12-18T08:23:22;100138.13;;;-9.89;82.51
5238;BME280;2639;49.700;7.962;2022-12-18T08:26:36;100132.53;;;-9.88;82.03
5238;BME280;2639;49.700;7.962;2022-12-18T08:29:47;100130.19;;;-9.82;82.07
5238;BME280;2639;49.700;7.962;2022-12-18T08:32:57;100127.00;;;-9.91;81.44
5238;BME280;2639;49.700;7.962;2022-12-18T08:36:08;100128.09;;;-10.18;82.25
5238;BME280;2639;49.700;7.962;2022-12-18T08:39:18;100119.84;;;-10.23;83.39
5238;BME280;2639;49.700;7.962;2022-12-18T08:42:28;100107.34;;;-10.09;83.57
5238;BME280;2639;49.700;7.962;2022-12-18T08:45:53;100103.75;;;-9.82;84.49
5238;BME280;2639;49.700;7.962;2022-12-18T08:49:03;100097.94;;;-9.63;84.43
5238;BME280;2639;49.700;7.962;2022-12-18T08:52:14;100095.22;;;-9.45;84.83
5238;BME280;2639;49.700;7.962;2022-12-18T08:55:24;100087.25;;;-9.38;84.55
5238;BME280;2639;49.700;7.962;2022-12-18T08:58:33;100092.50;;;-9.27;84.74
5238;BME280;2639;49.700;7.962;2022-12-18T09:01:45;100093.53;;;-9.01;85.41
5238;BME280;2639;49.700;7.962;2022-12-18T09:04:55;100088.94;;;-8.75;85.54
5238;BME280;2639;49.700;7.962;2022-12-18T09:08:05;100088.22;;;-8.54;85.70
5238;BME280;2639;49.700;7.962;2022-12-18T09:11:19;100082.63;;;-8.38;86.06
5238;BME280;2639;49.700;7.962;2022-12-18T09:14:29;100080.47;;;-8.11;86.25
5238;BME280;2639;49.700;7.962;2022-12-18T09:17:40;100081.13;;;-7.87;86.90
5238;BME280;2639;49.700;7.962;2022-12-18T09:20:50;100089.50;;;-7.62;87.85
5238;BME280;2639;49.700;7.962;2022-12-18T09:24:01;100102.09;;;-7.41;89.56
5238;BME280;2639;49.700;7.962;2022-12-18T09:27:11;100101.16;;;-7.16;92.31
5238;BME280;2639;49.700;7.962;2022-12-18T09:30:23;100111.13;;;-6.85;94.42
5238;BME280;2639;49.700;7.962;2022-12-18T09:33:34;100105.13;;;-6.61;95.67
5238;BME280;2639;49.700;7.962;2022-12-18T09:36:44;100103.19;;;-6.37;96.88
5238;BME280;2639;49.700;7.962;2022-12-18T09:39:55;100111.56;;;-6.21;97.08
5238;BME280;2639;49.700;7.962;2022-12-18T09:43:06;100109.75;;;-6.01;96.73
5238;BME280;2639;49.700;7.962;2022-12-18T09:46:25;100109.56;;;-5.97;97.21
5238;BME280;2639;49.700;7.962;2022-12-18T09:49:41;100102.00;;;-5.76;96.49
5238;BME280;2639;49.700;7.962;2022-12-18T09:52:55;100102.41;;;-5.57;96.24
5238;BME280;2639;49.700;7.962;2022-12-18T09:56:12;100098.03;;;-5.43;95.51
5238;BME280;2639;49.700;7.962;2022-12-18T09:59:30;100100.59;;;-5.32;94.81
5238;BME280;2639;49.700;7.962;2022-12-18T10:02:44;100108.03;;;-5.16;94.67
5238;BME280;2639;49.700;7.962;2022-12-18T10:06:02;100096.13;;;-5.23;93.67
5238;BME280;2639;49.700;7.962;2022-12-18T10:09:23;100099.34;;;-5.18;94.47
5238;BME280;2639;49.700;7.962;2022-12-18T10:12:42;100085.59;;;-4.99;93.86
5238;BME280;2639;49.700;7.962;2022-12-18T10:16:03;100079.97;;;-4.93;92.88
5238;BME280;2639;49.700;7.962;2022-12-18T10:19:32;100074.25;;;-4.97;91.93
5238;BME280;2639;49.700;7.962;2022-12-18T10:22:53;100077.00;;;-5.22;93.57
5238;BME280;2639;49.700;7.962;2022-12-18T10:26:06;100061.63;;;-5.14;94.06
5238;BME280;2639;49.700;7.962;2022-12-18T10:29:16;100047.66;;;-4.91;94.73
5238;BME280;2639;49.700;7.962;2022-12-18T10:32:28;100053.91;;;-4.72;92.88
5238;BME280;2639;49.700;7.962;2022-12-18T10:35:41;100057.31;;;-4.72;92.19
5238;BME280;2639;49.700;7.962;2022-12-18T10:38:52;100062.13;;;-4.62;91.24
5238;BME280;2639;49.700;7.962;2022-12-18T10:42:10;100062.84;;;-4.63;90.86
5238;BME280;2639;49.700;7.962;2022-12-18T10:45:21;100069.00;;;-4.61;91.27
5238;BME280;2639;49.700;7.962;2022-12-18T10:48:32;100072.84;;;-4.63;91.52
5238;BME280;2639;49.700;7.962;2022-12-18T10:51:42;100076.84;;;-4.42;91.38
5238;BME280;2639;49.700;7.962;2022-12-18T10:54:55;100092.59;;;-4.32;90.07
5238;BME280;2639;49.700;7.962;2022-12-18T10:58:16;100091.28;;;-4.19;90.24
5238;BME280;2639;49.700;7.962;2022-12-18T11:01:47;100095.28;;;-4.48;89.15
5238;BME280;2639;49.700;7.962;2022-12-18T11:04:58;100088.03;;;-4.35;90.38
5238;BME280;2639;49.700;7.962;2022-12-18T11:08:19;100099.84;;;-4.39;90.05
5238;BME280;2639;49.700;7.962;2022-12-18T11:11:32;100083.41;;;-4.49;90.30
5238;BME280;2639;49.700;7.962;2022-12-18T11:14:45;100067.28;;;-4.39;91.88
5238;BME280;2639;49.700;7.962;2022-12-18T11:17:56;100059.69;;;-4.51;91.89
5238;BME280;2639;49.700;7.962;2022-12-18T11:21:07;100049.66;;;-4.51;91.87
5238;BME280;2639;49.700;7.962;2022-12-18T11:24:21;100051.59;;;-4.27;91.88
5238;BME280;2639;49.700;7.962;2022-12-18T11:27:35;100043.00;;;-4.12;91.08
5238;BME280;2639;49.700;7.962;2022-12-18T11:30:46;100056.13;;;-4.30;90.21
5238;BME280;2639;49.700;7.962;2022-12-18T11:34:00;100071.69;;;-4.16;91.84
5238;BME280;2639;49.700;7.962;2022-12-18T11:37:31;100067.63;;;-4.10;90.41
5238;BME280;2639;49.700;7.962;2022-12-18T11:40:44;100057.13;;;-4.13;89.85
5238;BME280;2639;49.700;7.962;2022-12-18T11:43:59;100054.38;;;-4.09;89.61
5238;BME280;2639;49.700;7.962;2022-12-18T11:47:19;100043.19;;;-4.11;89.48
5238;BME280;2639;49.700;7.962;2022-12-18T11:50:45;100047.06;;;-4.24;89.57
5238;BME280;2639;49.700;7.962;2022-12-18T11:53:56;100047.66;;;-4.36;90.34
5238;BME280;2639;49.700;7.962;2022-12-18T11:57:10;100037.47;;;-4.21;90.79
5238;BME280;2639;49.700;7.962;2022-12-18T12:00:26;100024.31;;;-3.97;90.22
5238;BME280;2639;49.700;7.962;2022-12-18T12:03:50;100017.50;;;-3.82;89.27
5238;BME280;2639;49.700;7.962;2022-12-18T12:07:14;100022.97;;;-3.84;88.42
5238;BME280;2639;49.700;7.962;2022-12-18T12:10:37;100024.38;;;-3.64;88.92
5238;BME280;2639;49.700;7.962;2022-12-18T12:14:00;100029.84;;;-3.61;87.74
5238;BME280;2639;49.700;7.962;2022-12-18T12:17:21;100031.66;;;-3.76;87.82
5238;BME280;2639;49.700;7.962;2022-12-18T12:20:44;100032.53;;;-3.93;88.91
5238;BME280;2639;49.700;7.962;2022-12-18T12:24:02;100020.84;;;-4.20;89.84
5238;BME280;2639;49.700;7.962;2022-12-18T12:27:20;100020.19;;;-4.14;91.20
5238;BME280;2639;49.700;7.962;2022-12-18T12:30:42;100019.78;;;-3.94;90.73
5238;BME280;2639;49.700;7.962;2022-12-18T12:34:01;100009.72;;;-3.83;89.15
5238;BME280;2639;49.700;7.962;2022-12-18T12:37:24;99995.59;;;-3.60;88.78
5238;BME280;2639;49.700;7.962;2022-12-18T12:40:42;99989.91;;;-3.70;88.90
5238;BME280;2639;49.700;7.962;2022-12-18T12:44:15;99993.78;;;-3.67;89.69
5238;BME280;2639;49.700;7.962;2022-12-18T12:47:29;99988.75;;;-3.55;88.61
5238;BME280;2639;49.700;7.962;2022-12-18T12:50:43;99977.56;;;-3.57;88.35
5238;BME280;2639;49.700;7.962;2022-12-18T12:53:55;99978.72;;;-3.55;88.53
5238;BME280;2639;49.700;7.962;2022-12-18T12:57:09;99981.69;;;-3.75;88.97
5238;BME280;2639;49.700;7.962;2022-12-18T13:00:23;99974.63;;;-3.61;89.06
5238;BME280;2639;49.700;7.962;2022-12-18T13:03:42;99967.78;;;-3.56;89.44
5238;BME280;2639;49.700;7.962;2022-12-18T13:07:01;99962.78;;;-3.62;88.16
5238;BME280;2639;49.700;7.962;2022-12-18T13:10:25;99957.50;;;-3.57;88.88
5238;BME280;2639;49.700;7.962;2022-12-18T13:13:48;99954.09;;;-3.52;88.76
5238;BME280;2639;49.700;7.962;2022-12-18T13:17:15;99944.72;;;-3.42;88.47
5238;BME280;2639;49.700;7.962;2022-12-18T13:20:32;99954.31;;;-3.45;88.13
5238;BME280;2639;49.700;7.962;2022-12-18T13:23:45;99958.63;;;-3.44;88.37
5238;BME280;2639;49.700;7.962;2022-12-18T13:26:54;99962.31;;;-3.59;88.85
5238;BME280;2639;49.700;7.962;2022-12-18T13:30:41;99957.06;;;-3.66;89.19
5238;BME280;2639;49.700;7.962;2022-12-18T13:34:11;99950.00;;;-3.69;89.05
5238;BME280;2639;49.700;7.962;2022-12-18T13:37:43;99943.38;;;-3.57;89.47
5238;BME280;2639;49.700;7.962;2022-12-18T13:40:57;99936.06;;;-3.67;89.47
5238;BME280;2639;49.700;7.962;2022-12-18T13:44:11;99943.13;;;-3.70;90.48
5238;BME280;2639;49.700;7.962;2022-12-18T13:47:26;99937.91;;;-3.66;90.49
5238;BME280;2639;49.700;7.962;2022-12-18T13:50:38;99939.97;;;-3.80;91.06
5238;BME280;2639;49.700;7.962;2022-12-18T13:53:50;99943.84;;;-3.71;90.88
5238;BME280;2639;49.700;7.962;2022-12-18T13:57:03;99946.56;;;-3.75;90.98
5238;BME280;2639;49.700;7.962;2022-12-18T14:00:24;99929.47;;;-3.77;91.71
5238;BME280;2639;49.700;7.962;2022-12-18T14:03:35;99925.81;;;-3.74;91.60
5238;BME280;2639;49.700;7.962;2022-12-18T14:06:45;99933.09;;;-3.81;91.73
5238;BME280;2639;49.700;7.962;2022-12-18T14:09:58;99933.38;;;-3.85;91.70
5238;BME280;2639;49.700;7.962;2022-12-18T14:13:31;99940.66;;;-3.75;92.47
5238;BME280;2639;49.700;7.962;2022-12-18T14:16:42;99937.88;;;-3.71;92.17
5238;BME280;2639;49.700;7.962;2022-12-18T14:19:53;99942.91;;;-3.77;91.81
5238;BME280;2639;49.700;7.962;2022-12-18T14:23:03;99937.91;;;-3.88;92.07
5238;BME280;2639;49.700;7.962;2022-12-18T14:26:21;99937.47;;;-3.80;92.55
5238;BME280;2639;49.700;7.962;2022-12-18T14:29:35;99939.50;;;-3.83;92.54
5238;BME280;2639;49.700;7.962;2022-12-18T14:32:59;99933.38;;;-3.85;92.78
5238;BME280;2639;49.700;7.962;2022-12-18T14:36:15;99937.22;;;-3.82;92.88
5238;BME280;2639;49.700;7.962;2022-12-18T14:39:26;99933.38;;;-3.85;92.95
5238;BME280;2639;49.700;7.962;2022-12-18T14:42:36;99942.44;;;-3.97;93.87
5238;BME280;2639;49.700;7.962;2022-12-18T14:45:48;99932.22;;;-3.98;93.86
5238;BME280;2639;49.700;7.962;2022-12-18T14:48:59;99935.16;;;-3.95;94.03
5238;BME280;2639;49.700;7.962;2022-12-18T14:52:18;99936.75;;;-4.02;93.51
5238;BME280;2639;49.700;7.962;2022-12-18T14:55:30;99938.56;;;-4.12;94.02
5238;BME280;2639;49.700;7.962;2022-12-18T14:58:45;99946.78;;;-4.13;93.69
5238;BME280;2639;49.700;7.962;2022-12-18T15:02:02;99933.31;;;-4.13;93.50
5238;BME280;2639;49.700;7.962;2022-12-18T15:05:18;99929.91;;;-4.19;93.76
5238;BME280;2639;49.700;7.962;2022-12-18T15:08:34;99927.16;;;-4.21;93.89
5238;BME280;2639;49.700;7.962;2022-12-18T15:11:46;99926.72;;;-4.24;93.48
5238;BME280;2639;49.700;7.962;2022-12-18T15:14:57;99919.41;;;-4.28;93.14
5238;BME280;2639;49.700;7.962;2022-12-18T15:18:13;99920.31;;;-4.33;93.76
5238;BME280;2639;49.700;7.962;2022-12-18T15:21:26;99915.97;;;-4.34;94.02
5238;BME280;2639;49.700;7.962;2022-12-18T15:24:40;99927.13;;;-4.44;94.49
5238;BME280;2639;49.700;7.962;2022-12-18T15:27:51;99933.50;;;-4.57;95.28
5238;BME280;2639;49.700;7.962;2022-12-18T15:31:05;99928.00;;;-4.60;95.91
5238;BME280;2639;49.700;7.962;2022-12-18T15:34:21;99930.47;;;-4.71;96.66
5238;BME280;2639;49.700;7.962;2022-12-18T15:37:33;99923.44;;;-4.68;96.62
5238;BME280;2639;49.700;7.962;2022-12-18T15:40:44;99935.91;;;-4.74;97.00
5238;BME280;2639;49.700;7.962;2022-12-18T15:43:55;99929.28;;;-4.84;98.15
5238;BME280;2639;49.700;7.962;2022-12-18T15:47:11;99934.75;;;-4.87;97.63
5238;BME280;2639;49.700;7.962;2022-12-18T15:50:25;99937.97;;;-4.82;97.75
5238;BME280;2639;49.700;7.962;2022-12-18T15:53:38;99943.44;;;-4.79;97.84
5238;BME280;2639;49.700;7.962;2022-12-18T15:56:50;99937.53;;;-4.74;97.43
5238;BME280;2639;49.700;7.962;2022-12-18T16:00:15;99941.88;;;-4.73;97.84
5238;BME280;2639;49.700;7.962;2022-12-18T16:03:26;99934.75;;;-4.81;98.10
5238;BME280;2639;49.700;7.962;2022-12-18T16:06:39;99935.72;;;-4.75;98.62
5238;BME280;2639;49.700;7.962;2022-12-18T16:10:11;99929.34;;;-4.73;98.25
5238;BME280;2639;49.700;7.962;2022-12-18T16:13:22;99933.44;;;-4.68;98.39
5238;BME280;2639;49.700;7.962;2022-12-18T16:16:33;99926.19;;;-4.61;97.65
5238;BME280;2639;49.700;7.962;2022-12-18T16:19:46;99921.63;;;-4.58;97.57
5238;BME280;2639;49.700;7.962;2022-12-18T16:22:59;99926.44;;;-4.54;97.19
5238;BME280;2639;49.700;7.962;2022-12-18T16:26:10;99918.91;;;-4.54;97.17
5238;BME280;2639;49.700;7.962;2022-12-18T16:29:22;99918.91;;;-4.48;97.39
5238;BME280;2639;49.700;7.962;2022-12-18T16:32:36;99920.72;;;-4.53;96.93
5238;BME280;2639;49.700;7.962;2022-12-18T16:35:51;99916.16;;;-4.55;97.52
5238;BME280;2639;49.700;7.962;2022-12-18T16:39:04;99903.41;;;-4.57;97.88
5238;BME280;2639;49.700;7.962;2022-12-18T16:42:17;99911.19;;;-4.50;97.79
5238;BME280;2639;49.700;7.962;2022-12-18T16:45:29;99905.25;;;-4.45;97.87
5238;BME280;2639;49.700;7.962;2022-12-18T16:48:42;99899.34;;;-4.39;97.60
5238;BME280;2639;49.700;7.962;2022-12-18T16:51:54;99892.25;;;-4.36;96.46
5238;BME280;2639;49.700;7.962;2022-12-18T16:55:10;99887.50;;;-4.40;96.76
5238;BME280;2639;49.700;7.962;2022-12-18T16:58:21;99894.31;;;-4.39;96.80
5238;BME280;2639;49.700;7.962;2022-12-18T17:01:32;99895.22;;;-4.39;96.39
5238;BME280;2639;49.700;7.962;2022-12-18T17:04:44;99894.31;;;-4.39;96.31
5238;BME280;2639;49.700;7.962;2022-12-18T17:07:56;99891.81;;;-4.39;95.59
5238;BME280;2639;49.700;7.962;2022-12-18T17:11:08;99880.44;;;-4.43;96.44
5238;BME280;2639;49.700;7.962;2022-12-18T17:14:21;99877.94;;;-4.43;97.22
5238;BME280;2639;49.700;7.962;2022-12-18T17:17:32;99879.28;;;-4.39;97.22
5238;BME280;2639;49.700;7.962;2022-12-18T17:20:45;99886.34;;;-4.37;97.13
5238;BME280;2639;49.700;7.962;2022-12-18T17:23:59;99883.16;;;-4.41;98.53
5238;BME280;2639;49.700;7.962;2022-12-18T17:27:13;99886.34;;;-4.37;98.55
5238;BME280;2639;49.700;7.962;2022-12-18T17:30:24;99886.59;;;-4.35;98.14
5238;BME280;2639;49.700;7.962;2022-12-18T17:33:35;99873.84;;;-4.31;97.95
5238;BME280;2639;49.700;7.962;2022-12-18T17:36:47;99869.72;;;-4.31;98.02
5238;BME280;2639;49.700;7.962;2022-12-18T17:39:58;99860.59;;;-4.30;98.09
5238;BME280;2639;49.700;7.962;2022-12-18T17:43:10;99860.59;;;-4.30;97.91
5238;BME280;2639;49.700;7.962;2022-12-18T17:46:21;99865.63;;;-4.30;98.19
5238;BME280;2639;49.700;7.962;2022-12-18T17:49:32;99867.00;;;-4.27;98.48
5238;BME280;2639;49.700;7.962;2022-12-18T17:52:42;99860.38;;;-4.26;98.82
5238;BME280;2639;49.700;7.962;2022-12-18T17:55:53;99862.44;;;-4.24;99.40
5238;BME280;2639;49.700;7.962;2022-12-18T17:59:04;99861.97;;;-4.21;99.14
5238;BME280;2639;49.700;7.962;2022-12-18T18:02:14;99854.25;;;-4.17;99.06
5238;BME280;2639;49.700;7.962;2022-12-18T18:05:25;99857.88;;;-4.15;98.57
5238;BME280;2639;49.700;7.962;2022-12-18T18:08:35;99853.31;;;-4.12;99.98
5238;BME280;2639;49.700;7.962;2022-12-18T18:11:46;99862.91;;;-4.04;100.00
5238;BME280;2639;49.700;7.962;2022-12-18T18:15:10;99858.31;;;-3.95;100.00
5238;BME280;2639;49.700;7.962;2022-12-18T18:18:22;99860.63;;;-3.85;100.00
5238;BME280;2639;49.700;7.962;2022-12-18T18:21:36;99861.50;;;-3.79;100.00
5238;BME280;2639;49.700;7.962;2022-12-18T18:24:48;99858.53;;;-3.71;100.00
5238;BME280;2639;49.700;7.962;2022-12-18T18:27:59;99843.22;;;-3.67;100.00
5238;BME280;2639;49.700;7.962;2022-12-18T18:31:11;99846.84;;;-3.65;100.00
5238;BME280;2639;49.700;7.962;2022-12-18T18:34:26;99837.72;;;-3.58;100.00
5238;BME280;2639;49.700;7.962;2022-12-18T18:37:38;99832.25;;;-3.56;100.00
5238;BME280;2639;49.700;7.962;2022-12-18T18:40:57;99839.97;;;-3.49;100.00
5238;BME280;2639;49.700;7.962;2022-12-18T18:44:08;99830.41;;;-3.46;100.00
5238;BME280;2639;49.700;7.962;2022-12-18T18:47:22;99823.06;;;-3.39;100.00
5238;BME280;2639;49.700;7.962;2022-12-18T18:50:32;99822.59;;;-3.36;100.00
5238;BME280;2639;49.700;7.962;2022-12-18T18:53:44;99825.31;;;-3.34;100.00
5238;BME280;2639;49.700;7.962;2022-12-18T18:56:54;99826.69;;;-3.31;100.00
5238;BME280;2639;49.700;7.962;2022-12-18T19:00:25;99825.31;;;-3.29;100.00
5238;BME280;2639;49.700;7.962;2022-12-18T19:03:38;99814.75;;;-3.21;100.00
5238;BME280;2639;49.700;7.962;2022-12-18T19:06:49;99806.56;;;-3.20;100.00
5238;BME280;2639;49.700;7.962;2022-12-18T19:10:00;99804.22;;;-3.12;100.00
5238;BME280;2639;49.700;7.962;2022-12-18T19:13:12;99802.41;;;-3.13;100.00
5238;BME280;2639;49.700;7.962;2022-12-18T19:16:29;99805.38;;;-3.10;100.00
5238;BME280;2639;49.700;7.962;2022-12-18T19:19:40;99798.69;;;-3.04;100.00
5238;BME280;2639;49.700;7.962;2022-12-18T19:22:50;99791.81;;;-3.00;100.00
5238;BME280;2639;49.700;7.962;2022-12-18T19:26:05;99797.78;;;-2.99;100.00
5238;BME280;2639;49.700;7.962;2022-12-18T19:29:35;99789.06;;;-2.96;100.00
5238;BME280;2639;49.700;7.962;2022-12-18T19:32:45;99788.09;;;-2.85;100.00
5238;BME280;2639;49.700;7.962;2022-12-18T19:35:56;99779.81;;;-2.78;100.00
5238;BME280;2639;49.700;7.962;2022-12-18T19:39:08;99776.13;;;-2.75;100.00
5238;BME280;2639;49.700;7.962;2022-12-18T19:42:19;99783.41;;;-2.70;100.00
5238;BME280;2639;49.700;7.962;2022-12-18T19:45:39;99776.38;;;-2.79;100.00
5238;BME280;2639;49.700;7.962;2022-12-18T19:48:50;99774.31;;;-2.76;100.00
5238;BME280;2639;49.700;7.962;2022-12-18T19:52:02;99767.03;;;-2.80;100.00
5238;BME280;2639;49.700;7.962;2022-12-18T19:55:12;99774.75;;;-2.72;100.00
5238;BME280;2639;49.700;7.962;2022-12-18T19:58:23;99769.50;;;-2.74;100.00
5238;BME280;2639;49.700;7.962;2022-12-18T20:01:33;99773.44;;;-2.82;100.00
5238;BME280;2639;49.700;7.962;2022-12-18T20:04:44;99774.16;;;-2.83;100.00
5238;BME280;2639;49.700;7.962;2022-12-18T20:07:57;99767.47;;;-2.77;100.00
5238;BME280;2639;49.700;7.962;2022-12-18T20:11:08;99761.44;;;-2.66;100.00
5238;BME280;2639;49.700;7.962;2022-12-18T20:14:19;99765.59;;;-2.72;100.00
5238;BME280;2639;49.700;7.962;2022-12-18T20:17:31;99761.13;;;-2.56;100.00
5238;BME280;2639;49.700;7.962;2022-12-18T20:20:41;99760.19;;;-2.51;100.00
5238;BME280;2639;49.700;7.962;2022-12-18T20:23:53;99761.31;;;-2.49;100.00
5238;BME280;2639;49.700;7.962;2022-12-18T20:27:03;99765.44;;;-2.49;100.00
5238;BME280;2639;49.700;7.962;2022-12-18T20:30:19;99760.34;;;-2.44;100.00
5238;BME280;2639;49.700;7.962;2022-12-18T20:33:30;99756.25;;;-2.43;100.00
